sensor_id;sensor_type;location;lat;lon;timestamp;P1;durP1;ratioP1;P2;durP2;ratioP2
63621;SDS011;49770;47.544;19.074;2023-04-24T04:12:57;24.23;;;18.83;;
63621;SDS011;49770;47.544;19.074;2023-04-24T04:16:00;27.08;;;19.42;;
63621;SDS011;49770;47.544;19.074;2023-04-24T04:19:03;24.27;;;19.27;;
63621;SDS011;49770;47.544;19.074;2023-04-24T04:22:08;24.63;;;17.12;;
63621;SDS011;49770;47.544;19.074;2023-04-24T04:25:11;24.52;;;18.83;;
63621;SDS011;49770;47.544;19.074;2023-04-24T04:28:16;25.67;;;18.42;;
63621;SDS011;49770;47.544;19.074;2023-04-24T04:31:22;24.90;;;16.85;;
63621;SDS011;49770;47.544;19.074;2023-04-24T04:34:26;23.17;;;17.40;;
63621;SDS011;49770;47.544;19.074;2023-04-24T04:37:32;20.73;;;16.77;;
63621;SDS011;49770;47.544;19.074;2023-04-24T04:40:37;21.87;;;16.62;;
63621;SDS011;49770;47.544;19.074;2023-04-24T04:43:40;19.92;;;16.98;;
63621;SDS011;49770;47.544;19.074;2023-04-24T04:46:43;20.58;;;17.35;;
63621;SDS011;49770;47.544;19.074;2023-04-24T04:49:46;19.95;;;17.23;;
63621;SDS011;49770;47.544;19.074;2023-04-24T04:52:50;22.10;;;17.58;;
63621;SDS011;49770;47.544;19.074;2023-04-24T04:55:53;20.80;;;17.30;;
63621;SDS011;49770;47.544;19.074;2023-04-24T04:58:56;22.65;;;17.33;;
63621;SDS011;49770;47.544;19.074;2023-04-24T05:01:59;22.00;;;16.67;;
63621;SDS011;49770;47.544;19.074;2023-04-24T05:05:05;21.23;;;17.05;;
63621;SDS011;49770;47.544;19.074;2023-04-24T05:08:09;22.58;;;17.33;;
63621;SDS011;49770;47.544;19.074;2023-04-24T05:11:27;19.25;;;16.23;;
63621;SDS011;49770;47.544;19.074;2023-04-24T05:14:30;29.17;;;16.90;;
63621;SDS011;49770;47.544;19.074;2023-04-24T05:17:33;20.67;;;16.80;;
63621;SDS011;49770;47.544;19.074;2023-04-24T05:20:36;25.60;;;16.55;;
63621;SDS011;49770;47.544;19.074;2023-04-24T05:23:39;20.73;;;16.15;;
63621;SDS011;49770;47.544;19.074;2023-04-24T05:26:42;22.20;;;16.33;;
63621;SDS011;49770;47.544;19.074;2023-04-24T05:29:45;18.62;;;15.68;;
63621;SDS011;49770;47.544;19.074;2023-04-24T05:32:48;20.50;;;15.85;;
63621;SDS011;49770;47.544;19.074;2023-04-24T05:35:51;18.70;;;16.62;;
63621;SDS011;49770;47.544;19.074;2023-04-24T05:38:54;22.40;;;15.63;;
63621;SDS011;49770;47.544;19.074;2023-04-24T05:41:58;25.98;;;16.05;;
63621;SDS011;49770;47.544;19.074;2023-04-24T05:45:00;18.42;;;14.43;;
63621;SDS011;49770;47.544;19.074;2023-04-24T05:48:04;17.52;;;14.07;;
63621;SDS011;49770;47.544;19.074;2023-04-24T05:51:07;20.12;;;14.07;;
63621;SDS011;49770;47.544;19.074;2023-04-24T05:54:10;16.30;;;13.35;;
63621;SDS011;49770;47.544;19.074;2023-04-24T05:57:14;19.33;;;13.35;;
63621;SDS011;49770;47.544;19.074;2023-04-24T06:00:21;19.45;;;13.90;;
63621;SDS011;49770;47.544;19.074;2023-04-24T06:03:24;15.77;;;13.35;;
63621;SDS011;49770;47.544;19.074;2023-04-24T06:06:27;17.15;;;13.02;;
63621;SDS011;49770;47.544;19.074;2023-04-24T06:09:31;17.87;;;12.95;;
63621;SDS011;49770;47.544;19.074;2023-04-24T06:12:34;18.33;;;12.75;;
63621;SDS011;49770;47.544;19.074;2023-04-24T06:15:38;17.75;;;12.48;;
63621;SDS011;49770;47.544;19.074;2023-04-24T06:18:41;15.82;;;11.70;;
63621;SDS011;49770;47.544;19.074;2023-04-24T06:21:44;14.32;;;11.98;;
63621;SDS011;49770;47.544;19.074;2023-04-24T06:24:47;15.95;;;12.30;;
63621;SDS011;49770;47.544;19.074;2023-04-24T06:27:51;18.12;;;12.30;;
63621;SDS011;49770;47.544;19.074;2023-04-24T06:30:53;15.52;;;11.85;;
63621;SDS011;49770;47.544;19.074;2023-04-24T06:33:56;13.75;;;11.45;;
63621;SDS011;49770;47.544;19.074;2023-04-24T06:36:59;18.75;;;12.32;;
63621;SDS011;49770;47.544;19.074;2023-04-24T06:40:02;17.05;;;12.90;;
63621;SDS011;49770;47.544;19.074;2023-04-24T06:43:08;16.23;;;12.02;;
63621;SDS011;49770;47.544;19.074;2023-04-24T06:46:12;16.00;;;12.75;;
63621;SDS011;49770;47.544;19.074;2023-04-24T06:49:15;16.30;;;12.80;;
63621;SDS011;49770;47.544;19.074;2023-04-24T06:52:18;15.80;;;12.32;;
63621;SDS011;49770;47.544;19.074;2023-04-24T06:55:22;16.20;;;11.57;;
63621;SDS011;49770;47.544;19.074;2023-04-24T06:58:25;18.50;;;12.40;;
63621;SDS011;49770;47.544;19.074;2023-04-24T07:01:27;17.90;;;12.70;;
63621;SDS011;49770;47.544;19.074;2023-04-24T07:04:30;14.75;;;12.48;;
63621;SDS011;49770;47.544;19.074;2023-04-24T07:07:33;15.60;;;12.25;;
63621;SDS011;49770;47.544;19.074;2023-04-24T07:10:37;17.40;;;12.65;;
63621;SDS011;49770;47.544;19.074;2023-04-24T07:13:40;18.73;;;12.65;;
63621;SDS011;49770;47.544;19.074;2023-04-24T07:16:44;16.75;;;11.80;;
63621;SDS011;49770;47.544;19.074;2023-04-24T07:19:47;15.30;;;11.73;;
63621;SDS011;49770;47.544;19.074;2023-04-24T07:22:50;17.40;;;11.70;;
63621;SDS011;49770;47.544;19.074;2023-04-24T07:25:53;16.17;;;12.07;;
63621;SDS011;49770;47.544;19.074;2023-04-24T07:28:56;17.85;;;12.95;;
63621;SDS011;49770;47.544;19.074;2023-04-24T07:31:59;18.15;;;11.73;;
63621;SDS011;49770;47.544;19.074;2023-04-24T07:35:05;14.35;;;12.55;;
63621;SDS011;49770;47.544;19.074;2023-04-24T07:38:09;14.87;;;12.52;;
63621;SDS011;49770;47.544;19.074;2023-04-24T07:41:12;18.55;;;11.88;;
63621;SDS011;49770;47.544;19.074;2023-04-24T07:44:15;13.90;;;11.63;;
63621;SDS011;49770;47.544;19.074;2023-04-24T07:47:18;13.98;;;11.43;;
63621;SDS011;49770;47.544;19.074;2023-04-24T07:50:21;14.60;;;12.35;;
63621;SDS011;49770;47.544;19.074;2023-04-24T07:53:24;13.25;;;11.63;;
63621;SDS011;49770;47.544;19.074;2023-04-24T07:56:27;17.83;;;11.55;;
63621;SDS011;49770;47.544;19.074;2023-04-24T07:59:34;16.02;;;11.73;;
63621;SDS011;49770;47.544;19.074;2023-04-24T08:02:36;15.30;;;11.43;;
63621;SDS011;49770;47.544;19.074;2023-04-24T08:05:40;15.38;;;10.75;;
63621;SDS011;49770;47.544;19.074;2023-04-24T08:08:44;15.38;;;11.60;;
63621;SDS011;49770;47.544;19.074;2023-04-24T08:11:47;16.33;;;11.73;;
63621;SDS011;49770;47.544;19.074;2023-04-24T08:14:49;15.10;;;11.55;;
63621;SDS011;49770;47.544;19.074;2023-04-24T08:17:52;13.43;;;10.70;;
63621;SDS011;49770;47.544;19.074;2023-04-24T08:20:55;14.05;;;11.02;;
63621;SDS011;49770;47.544;19.074;2023-04-24T08:27:36;13.48;;;11.35;;
63621;SDS011;49770;47.544;19.074;2023-04-24T08:30:40;15.05;;;11.77;;
63621;SDS011;49770;47.544;19.074;2023-04-24T08:33:42;16.48;;;11.48;;
63621;SDS011;49770;47.544;19.074;2023-04-24T08:36:47;15.88;;;11.32;;
63621;SDS011;49770;47.544;19.074;2023-04-24T08:39:50;20.88;;;11.88;;
63621;SDS011;49770;47.544;19.074;2023-04-24T08:42:53;13.68;;;11.38;;
63621;SDS011;49770;47.544;19.074;2023-04-24T08:45:58;13.95;;;11.52;;
63621;SDS011;49770;47.544;19.074;2023-04-24T08:49:02;13.00;;;11.65;;
63621;SDS011;49770;47.544;19.074;2023-04-24T08:52:06;15.38;;;10.02;;
63621;SDS011;49770;47.544;19.074;2023-04-24T08:55:10;14.10;;;10.40;;
63621;SDS011;49770;47.544;19.074;2023-04-24T08:58:19;14.87;;;11.35;;
63621;SDS011;49770;47.544;19.074;2023-04-24T09:01:25;11.82;;;10.63;;
63621;SDS011;49770;47.544;19.074;2023-04-24T09:04:31;12.23;;;10.07;;
63621;SDS011;49770;47.544;19.074;2023-04-24T09:07:40;15.82;;;11.00;;
63621;SDS011;49770;47.544;19.074;2023-04-24T09:10:49;13.52;;;10.43;;
63621;SDS011;49770;47.544;19.074;2023-04-24T09:13:54;12.25;;;10.70;;
63621;SDS011;49770;47.544;19.074;2023-04-24T09:17:01;13.98;;;10.52;;
63621;SDS011;49770;47.544;19.074;2023-04-24T09:20:06;11.82;;;9.55;;
63621;SDS011;49770;47.544;19.074;2023-04-24T09:23:17;12.90;;;10.43;;
63621;SDS011;49770;47.544;19.074;2023-04-24T09:26:20;13.50;;;11.07;;
63621;SDS011;49770;47.544;19.074;2023-04-24T09:29:25;12.20;;;9.90;;
63621;SDS011;49770;47.544;19.074;2023-04-24T09:32:29;12.23;;;8.43;;
63621;SDS011;49770;47.544;19.074;2023-04-24T09:35:35;12.52;;;7.78;;
63621;SDS011;49770;47.544;19.074;2023-04-24T09:38:39;10.55;;;7.20;;
63621;SDS011;49770;47.544;19.074;2023-04-24T09:44:51;8.15;;;6.62;;
63621;SDS011;49770;47.544;19.074;2023-04-24T09:48:09;12.20;;;7.37;;
63621;SDS011;49770;47.544;19.074;2023-04-24T09:51:14;10.70;;;7.40;;
63621;SDS011;49770;47.544;19.074;2023-04-24T09:54:20;11.60;;;8.18;;
63621;SDS011;49770;47.544;19.074;2023-04-24T09:57:26;15.93;;;8.50;;
63621;SDS011;49770;47.544;19.074;2023-04-24T10:00:31;9.55;;;7.00;;
63621;SDS011;49770;47.544;19.074;2023-04-24T10:03:47;8.45;;;7.12;;
63621;SDS011;49770;47.544;19.074;2023-04-24T10:06:55;10.48;;;7.43;;
63621;SDS011;49770;47.544;19.074;2023-04-24T10:10:00;13.30;;;7.53;;
63621;SDS011;49770;47.544;19.074;2023-04-24T10:13:07;8.10;;;6.32;;
63621;SDS011;49770;47.544;19.074;2023-04-24T10:16:13;7.32;;;6.10;;
63621;SDS011;49770;47.544;19.074;2023-04-24T10:19:19;10.00;;;6.30;;
63621;SDS011;49770;47.544;19.074;2023-04-24T10:22:24;7.57;;;6.30;;
63621;SDS011;49770;47.544;19.074;2023-04-24T10:25:29;11.65;;;6.43;;
63621;SDS011;49770;47.544;19.074;2023-04-24T10:28:39;9.93;;;7.05;;
63621;SDS011;49770;47.544;19.074;2023-04-24T10:31:45;13.18;;;7.15;;
63621;SDS011;49770;47.544;19.074;2023-04-24T10:34:53;11.85;;;8.00;;
63621;SDS011;49770;47.544;19.074;2023-04-24T10:38:05;10.82;;;7.90;;
63621;SDS011;49770;47.544;19.074;2023-04-24T10:41:13;11.88;;;7.80;;
63621;SDS011;49770;47.544;19.074;2023-04-24T10:44:25;11.05;;;7.20;;
63621;SDS011;49770;47.544;19.074;2023-04-24T10:47:41;8.38;;;7.28;;
63621;SDS011;49770;47.544;19.074;2023-04-24T10:50:52;10.80;;;7.95;;
63621;SDS011;49770;47.544;19.074;2023-04-24T10:53:58;11.07;;;8.20;;
63621;SDS011;49770;47.544;19.074;2023-04-24T11:00:28;10.77;;;8.52;;
63621;SDS011;49770;47.544;19.074;2023-04-24T11:03:31;12.30;;;9.30;;
63621;SDS011;49770;47.544;19.074;2023-04-24T11:06:38;12.95;;;10.13;;
63621;SDS011;49770;47.544;19.074;2023-04-24T11:09:43;12.32;;;9.55;;
63621;SDS011;49770;47.544;19.074;2023-04-24T11:12:47;15.82;;;10.07;;
63621;SDS011;49770;47.544;19.074;2023-04-24T11:16:15;14.77;;;10.93;;
63621;SDS011;49770;47.544;19.074;2023-04-24T11:19:24;13.73;;;10.17;;
63621;SDS011;49770;47.544;19.074;2023-04-24T11:22:29;19.10;;;11.00;;
63621;SDS011;49770;47.544;19.074;2023-04-24T11:25:41;12.18;;;10.07;;
63621;SDS011;49770;47.544;19.074;2023-04-24T11:28:46;12.02;;;9.75;;
63621;SDS011;49770;47.544;19.074;2023-04-24T11:31:51;16.17;;;10.80;;
63621;SDS011;49770;47.544;19.074;2023-04-24T11:34:58;13.35;;;9.57;;
63621;SDS011;49770;47.544;19.074;2023-04-24T11:38:05;12.00;;;9.68;;
63621;SDS011;49770;47.544;19.074;2023-04-24T11:41:26;11.38;;;9.85;;
63621;SDS011;49770;47.544;19.074;2023-04-24T11:44:31;11.18;;;10.07;;
63621;SDS011;49770;47.544;19.074;2023-04-24T11:47:37;12.50;;;10.13;;
63621;SDS011;49770;47.544;19.074;2023-04-24T11:50:45;13.62;;;9.98;;
63621;SDS011;49770;47.544;19.074;2023-04-24T11:53:50;14.43;;;10.60;;
63621;SDS011;49770;47.544;19.074;2023-04-24T11:57:06;14.07;;;10.70;;
63621;SDS011;49770;47.544;19.074;2023-04-24T12:00:20;15.43;;;9.98;;
63621;SDS011;49770;47.544;19.074;2023-04-24T12:03:34;13.27;;;10.43;;
63621;SDS011;49770;47.544;19.074;2023-04-24T12:06:39;14.98;;;11.00;;
63621;SDS011;49770;47.544;19.074;2023-04-24T12:12:50;16.42;;;10.88;;
63621;SDS011;49770;47.544;19.074;2023-04-24T12:15:56;20.88;;;10.98;;
63621;SDS011;49770;47.544;19.074;2023-04-24T12:19:01;13.40;;;10.68;;
63621;SDS011;49770;47.544;19.074;2023-04-24T12:22:06;17.70;;;11.27;;
63621;SDS011;49770;47.544;19.074;2023-04-24T12:25:10;16.62;;;11.50;;
63621;SDS011;49770;47.544;19.074;2023-04-24T12:28:14;17.52;;;11.90;;
63621;SDS011;49770;47.544;19.074;2023-04-24T12:31:18;15.27;;;10.80;;
63621;SDS011;49770;47.544;19.074;2023-04-24T12:34:25;16.98;;;10.57;;
63621;SDS011;49770;47.544;19.074;2023-04-24T12:37:32;13.45;;;10.05;;
63621;SDS011;49770;47.544;19.074;2023-04-24T12:40:39;13.85;;;10.02;;
63621;SDS011;49770;47.544;19.074;2023-04-24T12:43:50;11.30;;;9.52;;
63621;SDS011;49770;47.544;19.074;2023-04-24T12:46:57;15.90;;;11.13;;
63621;SDS011;49770;47.544;19.074;2023-04-24T12:50:03;15.95;;;11.43;;
63621;SDS011;49770;47.544;19.074;2023-04-24T12:53:09;16.15;;;10.90;;
63621;SDS011;49770;47.544;19.074;2023-04-24T12:56:13;16.58;;;10.90;;
63621;SDS011;49770;47.544;19.074;2023-04-24T12:59:18;18.08;;;10.80;;
63621;SDS011;49770;47.544;19.074;2023-04-24T13:02:25;14.90;;;11.23;;
63621;SDS011;49770;47.544;19.074;2023-04-24T13:05:33;17.48;;;11.45;;
63621;SDS011;49770;47.544;19.074;2023-04-24T13:08:39;14.95;;;11.02;;
63621;SDS011;49770;47.544;19.074;2023-04-24T13:11:45;15.52;;;9.98;;
63621;SDS011;49770;47.544;19.074;2023-04-24T13:14:50;14.02;;;10.85;;
63621;SDS011;49770;47.544;19.074;2023-04-24T13:17:56;13.00;;;9.50;;
63621;SDS011;49770;47.544;19.074;2023-04-24T13:21:01;13.93;;;9.75;;
63621;SDS011;49770;47.544;19.074;2023-04-24T13:24:08;11.68;;;8.40;;
63621;SDS011;49770;47.544;19.074;2023-04-24T13:27:17;15.60;;;8.23;;
63621;SDS011;49770;47.544;19.074;2023-04-24T13:30:24;11.57;;;7.57;;
63621;SDS011;49770;47.544;19.074;2023-04-24T13:33:28;10.88;;;6.68;;
63621;SDS011;49770;47.544;19.074;2023-04-24T13:36:36;12.05;;;6.35;;
63621;SDS011;49770;47.544;19.074;2023-04-24T13:39:42;11.10;;;5.75;;
63621;SDS011;49770;47.544;19.074;2023-04-24T13:42:48;11.18;;;5.90;;
63621;SDS011;49770;47.544;19.074;2023-04-24T13:45:53;8.77;;;6.10;;
63621;SDS011;49770;47.544;19.074;2023-04-24T13:48:59;12.25;;;5.87;;
63621;SDS011;49770;47.544;19.074;2023-04-24T13:52:04;14.40;;;5.75;;
63621;SDS011;49770;47.544;19.074;2023-04-24T13:55:08;11.52;;;5.53;;
63621;SDS011;49770;47.544;19.074;2023-04-24T13:58:11;10.10;;;6.75;;
63621;SDS011;49770;47.544;19.074;2023-04-24T14:01:16;10.50;;;6.62;;
63621;SDS011;49770;47.544;19.074;2023-04-24T14:04:23;9.60;;;7.20;;
63621;SDS011;49770;47.544;19.074;2023-04-24T14:07:28;10.68;;;8.10;;
63621;SDS011;49770;47.544;19.074;2023-04-24T14:10:36;10.02;;;8.20;;
63621;SDS011;49770;47.544;19.074;2023-04-24T14:13:44;12.10;;;8.63;;
63621;SDS011;49770;47.544;19.074;2023-04-24T14:16:50;13.77;;;8.98;;
63621;SDS011;49770;47.544;19.074;2023-04-24T14:19:57;17.23;;;8.98;;
63621;SDS011;49770;47.544;19.074;2023-04-24T14:23:05;14.70;;;9.07;;
63621;SDS011;49770;47.544;19.074;2023-04-24T14:26:13;11.68;;;9.38;;
63621;SDS011;49770;47.544;19.074;2023-04-24T14:29:20;15.68;;;10.05;;
63621;SDS011;49770;47.544;19.074;2023-04-24T14:32:32;13.43;;;9.70;;
63621;SDS011;49770;47.544;19.074;2023-04-24T14:35:42;13.38;;;9.73;;
63621;SDS011;49770;47.544;19.074;2023-04-24T14:38:50;13.30;;;9.27;;
63621;SDS011;49770;47.544;19.074;2023-04-24T14:41:58;12.90;;;9.68;;
63621;SDS011;49770;47.544;19.074;2023-04-24T14:45:06;15.15;;;10.25;;
63621;SDS011;49770;47.544;19.074;2023-04-24T14:48:15;14.80;;;10.80;;
63621;SDS011;49770;47.544;19.074;2023-04-24T14:51:25;15.23;;;11.05;;
63621;SDS011;49770;47.544;19.074;2023-04-24T14:54:32;14.52;;;11.32;;
63621;SDS011;49770;47.544;19.074;2023-04-24T14:57:41;12.73;;;10.30;;
63621;SDS011;49770;47.544;19.074;2023-04-24T15:00:49;14.02;;;11.30;;
63621;SDS011;49770;47.544;19.074;2023-04-24T15:03:55;16.52;;;12.48;;
63621;SDS011;49770;47.544;19.074;2023-04-24T15:07:04;17.73;;;11.27;;
63621;SDS011;49770;47.544;19.074;2023-04-24T15:10:10;16.15;;;9.88;;
63621;SDS011;49770;47.544;19.074;2023-04-24T15:13:17;13.52;;;11.50;;
63621;SDS011;49770;47.544;19.074;2023-04-24T15:16:24;14.07;;;10.93;;
63621;SDS011;49770;47.544;19.074;2023-04-24T15:19:32;12.90;;;10.27;;
63621;SDS011;49770;47.544;19.074;2023-04-24T15:22:40;13.07;;;11.12;;
63621;SDS011;49770;47.544;19.074;2023-04-24T15:25:48;10.70;;;9.60;;
63621;SDS011;49770;47.544;19.074;2023-04-24T15:28:56;13.25;;;10.20;;
63621;SDS011;49770;47.544;19.074;2023-04-24T15:32:05;11.18;;;8.80;;
63621;SDS011;49770;47.544;19.074;2023-04-24T15:35:16;9.27;;;8.25;;
63621;SDS011;49770;47.544;19.074;2023-04-24T15:38:23;9.75;;;7.50;;
63621;SDS011;49770;47.544;19.074;2023-04-24T15:41:32;10.50;;;8.20;;
63621;SDS011;49770;47.544;19.074;2023-04-24T15:44:39;7.68;;;6.95;;
63621;SDS011;49770;47.544;19.074;2023-04-24T15:47:49;7.45;;;6.72;;
63621;SDS011;49770;47.544;19.074;2023-04-24T15:50:58;7.53;;;6.40;;
63621;SDS011;49770;47.544;19.074;2023-04-24T15:54:06;9.10;;;7.25;;
63621;SDS011;49770;47.544;19.074;2023-04-24T15:57:14;7.55;;;6.07;;
